sensor_id;sensor_type;location;lat;lon;timestamp;P1;durP1;ratioP1;P2;durP2;ratioP2
3811;SDS011;1921;49.368;11.068;2022-10-16T00:01:51;52.90;;;47.30;;
3811;SDS011;1921;49.368;11.068;2022-10-16T00:04:17;52.00;;;46.60;;
3811;SDS011;1921;49.368;11.068;2022-10-16T00:06:43;52.60;;;47.00;;
3811;SDS011;1921;49.368;11.068;2022-10-16T00:09:08;52.27;;;46.77;;
3811;SDS011;1921;49.368;11.068;2022-10-16T00:11:35;54.83;;;47.30;;
3811;SDS011;1921;49.368;11.068;2022-10-16T00:14:04;53.53;;;46.73;;
3811;SDS011;1921;49.368;11.068;2022-10-16T00:16:33;52.43;;;46.83;;
3811;SDS011;1921;49.368;11.068;2022-10-16T00:18:59;51.97;;;46.47;;
3811;SDS011;1921;49.368;11.068;2022-10-16T00:21:26;52.30;;;46.90;;
3811;SDS011;1921;49.368;11.068;2022-10-16T00:23:55;52.70;;;47.10;;
3811;SDS011;1921;49.368;11.068;2022-10-16T00:26:31;52.27;;;46.90;;
3811;SDS011;1921;49.368;11.068;2022-10-16T00:28:58;52.60;;;47.10;;
3811;SDS011;1921;49.368;11.068;2022-10-16T00:31:24;52.27;;;46.77;;
3811;SDS011;1921;49.368;11.068;2022-10-16T00:33:51;52.17;;;46.67;;
3811;SDS011;1921;49.368;11.068;2022-10-16T00:36:18;52.27;;;46.87;;
3811;SDS011;1921;49.368;11.068;2022-10-16T00:38:46;52.40;;;47.00;;
3811;SDS011;1921;49.368;11.068;2022-10-16T00:41:17;52.57;;;47.17;;
3811;SDS011;1921;49.368;11.068;2022-10-16T00:43:47;52.20;;;46.70;;
3811;SDS011;1921;49.368;11.068;2022-10-16T00:46:23;52.40;;;46.90;;
3811;SDS011;1921;49.368;11.068;2022-10-16T00:51:41;52.27;;;46.87;;
3811;SDS011;1921;49.368;11.068;2022-10-16T00:54:20;53.37;;;47.57;;
3811;SDS011;1921;49.368;11.068;2022-10-16T00:56:49;52.30;;;46.83;;
3811;SDS011;1921;49.368;11.068;2022-10-16T00:59:18;52.73;;;47.13;;
3811;SDS011;1921;49.368;11.068;2022-10-16T01:01:55;51.97;;;46.60;;
3811;SDS011;1921;49.368;11.068;2022-10-16T01:04:23;52.87;;;47.20;;
3811;SDS011;1921;49.368;11.068;2022-10-16T01:06:54;52.70;;;47.10;;
3811;SDS011;1921;49.368;11.068;2022-10-16T01:18:45;51.90;;;46.50;;
3811;SDS011;1921;49.368;11.068;2022-10-16T01:35:11;52.60;;;47.00;;
3811;SDS011;1921;49.368;11.068;2022-10-16T01:37:58;51.83;;;46.53;;
3811;SDS011;1921;49.368;11.068;2022-10-16T01:40:43;51.70;;;46.30;;
3811;SDS011;1921;49.368;11.068;2022-10-16T01:43:13;52.17;;;46.77;;
3811;SDS011;1921;49.368;11.068;2022-10-16T01:45:45;53.90;;;46.90;;
3811;SDS011;1921;49.368;11.068;2022-10-16T01:48:13;52.40;;;47.00;;
3811;SDS011;1921;49.368;11.068;2022-10-16T01:50:44;51.80;;;46.50;;
3811;SDS011;1921;49.368;11.068;2022-10-16T01:53:35;51.70;;;46.40;;
3811;SDS011;1921;49.368;11.068;2022-10-16T01:56:02;52.00;;;46.50;;
3811;SDS011;1921;49.368;11.068;2022-10-16T01:58:34;53.10;;;47.33;;
3811;SDS011;1921;49.368;11.068;2022-10-16T02:01:05;52.27;;;46.60;;
3811;SDS011;1921;49.368;11.068;2022-10-16T02:03:34;52.23;;;46.73;;
3811;SDS011;1921;49.368;11.068;2022-10-16T02:06:02;52.43;;;46.93;;
3811;SDS011;1921;49.368;11.068;2022-10-16T02:08:28;52.50;;;46.60;;
3811;SDS011;1921;49.368;11.068;2022-10-16T02:10:56;57.60;;;46.77;;
3811;SDS011;1921;49.368;11.068;2022-10-16T02:13:28;55.30;;;46.70;;
3811;SDS011;1921;49.368;11.068;2022-10-16T02:16:01;51.87;;;46.47;;
3811;SDS011;1921;49.368;11.068;2022-10-16T02:18:27;52.37;;;46.87;;
3811;SDS011;1921;49.368;11.068;2022-10-16T02:20:59;51.90;;;46.60;;
3811;SDS011;1921;49.368;11.068;2022-10-16T02:23:58;51.90;;;46.50;;
3811;SDS011;1921;49.368;11.068;2022-10-16T02:26:43;51.83;;;46.40;;
3811;SDS011;1921;49.368;11.068;2022-10-16T02:29:20;52.33;;;46.87;;
3811;SDS011;1921;49.368;11.068;2022-10-16T02:31:50;52.30;;;46.80;;
3811;SDS011;1921;49.368;11.068;2022-10-16T02:34:21;51.77;;;46.47;;
3811;SDS011;1921;49.368;11.068;2022-10-16T02:36:50;53.30;;;46.67;;
3811;SDS011;1921;49.368;11.068;2022-10-16T02:39:18;51.97;;;46.67;;
3811;SDS011;1921;49.368;11.068;2022-10-16T02:41:44;52.00;;;46.70;;
3811;SDS011;1921;49.368;11.068;2022-10-16T02:44:10;52.20;;;46.70;;
3811;SDS011;1921;49.368;11.068;2022-10-16T02:46:36;52.47;;;46.83;;
3811;SDS011;1921;49.368;11.068;2022-10-16T02:49:02;51.97;;;46.60;;
3811;SDS011;1921;49.368;11.068;2022-10-16T02:51:28;52.10;;;46.70;;
3811;SDS011;1921;49.368;11.068;2022-10-16T02:53:53;52.13;;;46.73;;
3811;SDS011;1921;49.368;11.068;2022-10-16T02:56:19;51.90;;;46.40;;
3811;SDS011;1921;49.368;11.068;2022-10-16T02:58:45;52.03;;;46.63;;
3811;SDS011;1921;49.368;11.068;2022-10-16T03:01:11;52.30;;;46.90;;
3811;SDS011;1921;49.368;11.068;2022-10-16T03:03:37;51.50;;;46.20;;
3811;SDS011;1921;49.368;11.068;2022-10-16T03:06:04;51.90;;;46.50;;
3811;SDS011;1921;49.368;11.068;2022-10-16T03:08:31;52.30;;;46.87;;
3811;SDS011;1921;49.368;11.068;2022-10-16T03:10:56;51.30;;;46.07;;
3811;SDS011;1921;49.368;11.068;2022-10-16T03:13:22;52.70;;;47.10;;
3811;SDS011;1921;49.368;11.068;2022-10-16T03:15:48;52.10;;;46.70;;
3811;SDS011;1921;49.368;11.068;2022-10-16T03:18:14;52.40;;;46.80;;
3811;SDS011;1921;49.368;11.068;2022-10-16T03:20:40;51.73;;;46.33;;
3811;SDS011;1921;49.368;11.068;2022-10-16T03:23:07;52.70;;;47.20;;
3811;SDS011;1921;49.368;11.068;2022-10-16T03:25:33;52.07;;;46.67;;
3811;SDS011;1921;49.368;11.068;2022-10-16T03:27:59;51.87;;;46.47;;
3811;SDS011;1921;49.368;11.068;2022-10-16T03:30:24;51.83;;;46.43;;
3811;SDS011;1921;49.368;11.068;2022-10-16T03:32:50;52.03;;;46.57;;
3811;SDS011;1921;49.368;11.068;2022-10-16T03:35:19;51.50;;;46.20;;
3811;SDS011;1921;49.368;11.068;2022-10-16T03:37:46;55.53;;;48.33;;
3811;SDS011;1921;49.368;11.068;2022-10-16T03:40:13;52.40;;;47.00;;
3811;SDS011;1921;49.368;11.068;2022-10-16T03:42:39;51.80;;;46.40;;
3811;SDS011;1921;49.368;11.068;2022-10-16T03:45:05;52.53;;;46.80;;
3811;SDS011;1921;49.368;11.068;2022-10-16T03:47:31;52.20;;;46.80;;
3811;SDS011;1921;49.368;11.068;2022-10-16T03:49:58;51.83;;;46.47;;
3811;SDS011;1921;49.368;11.068;2022-10-16T03:52:24;52.30;;;46.83;;
3811;SDS011;1921;49.368;11.068;2022-10-16T03:54:50;53.03;;;47.40;;
3811;SDS011;1921;49.368;11.068;2022-10-16T03:57:16;52.33;;;46.83;;
3811;SDS011;1921;49.368;11.068;2022-10-16T03:59:43;51.70;;;46.30;;
3811;SDS011;1921;49.368;11.068;2022-10-16T04:02:09;52.00;;;46.40;;
3811;SDS011;1921;49.368;11.068;2022-10-16T04:04:34;52.77;;;47.07;;
3811;SDS011;1921;49.368;11.068;2022-10-16T04:07:00;51.67;;;46.37;;
3811;SDS011;1921;49.368;11.068;2022-10-16T04:09:26;52.07;;;46.70;;
3811;SDS011;1921;49.368;11.068;2022-10-16T04:11:52;52.30;;;46.70;;
3811;SDS011;1921;49.368;11.068;2022-10-16T04:14:18;51.70;;;46.40;;
3811;SDS011;1921;49.368;11.068;2022-10-16T04:16:43;52.13;;;46.73;;
3811;SDS011;1921;49.368;11.068;2022-10-16T04:19:10;51.40;;;46.17;;
3811;SDS011;1921;49.368;11.068;2022-10-16T04:21:36;52.60;;;47.13;;
3811;SDS011;1921;49.368;11.068;2022-10-16T04:24:02;51.93;;;46.63;;
3811;SDS011;1921;49.368;11.068;2022-10-16T04:26:28;52.00;;;46.50;;
3811;SDS011;1921;49.368;11.068;2022-10-16T04:28:54;51.90;;;46.40;;
3811;SDS011;1921;49.368;11.068;2022-10-16T04:31:20;52.70;;;47.20;;
3811;SDS011;1921;49.368;11.068;2022-10-16T04:33:46;51.93;;;46.53;;
3811;SDS011;1921;49.368;11.068;2022-10-16T04:36:12;52.23;;;46.83;;
3811;SDS011;1921;49.368;11.068;2022-10-16T04:38:38;55.03;;;46.73;;
3811;SDS011;1921;49.368;11.068;2022-10-16T04:41:05;52.60;;;47.00;;
3811;SDS011;1921;49.368;11.068;2022-10-16T04:43:31;52.00;;;46.60;;
3811;SDS011;1921;49.368;11.068;2022-10-16T04:45:58;52.17;;;46.77;;
3811;SDS011;1921;49.368;11.068;2022-10-16T04:48:24;52.50;;;46.80;;
3811;SDS011;1921;49.368;11.068;2022-10-16T04:50:50;52.67;;;46.97;;
3811;SDS011;1921;49.368;11.068;2022-10-16T04:53:16;52.03;;;46.63;;
3811;SDS011;1921;49.368;11.068;2022-10-16T04:55:42;52.13;;;46.77;;
3811;SDS011;1921;49.368;11.068;2022-10-16T04:58:08;52.23;;;46.80;;
3811;SDS011;1921;49.368;11.068;2022-10-16T05:00:34;54.63;;;47.43;;
3811;SDS011;1921;49.368;11.068;2022-10-16T05:03:01;53.30;;;47.60;;
3811;SDS011;1921;49.368;11.068;2022-10-16T05:05:30;52.80;;;47.20;;
3811;SDS011;1921;49.368;11.068;2022-10-16T05:07:56;51.90;;;46.40;;
3811;SDS011;1921;49.368;11.068;2022-10-16T05:10:22;51.90;;;46.50;;
3811;SDS011;1921;49.368;11.068;2022-10-16T05:12:48;52.83;;;47.20;;
3811;SDS011;1921;49.368;11.068;2022-10-16T05:15:13;51.93;;;46.53;;
3811;SDS011;1921;49.368;11.068;2022-10-16T05:17:39;51.40;;;46.10;;
3811;SDS011;1921;49.368;11.068;2022-10-16T05:20:05;52.50;;;46.90;;
3811;SDS011;1921;49.368;11.068;2022-10-16T05:22:31;52.07;;;46.77;;
3811;SDS011;1921;49.368;11.068;2022-10-16T05:24:57;52.00;;;46.50;;
3811;SDS011;1921;49.368;11.068;2022-10-16T05:27:23;51.80;;;46.50;;
3811;SDS011;1921;49.368;11.068;2022-10-16T05:29:49;52.03;;;46.60;;
3811;SDS011;1921;49.368;11.068;2022-10-16T05:32:15;51.90;;;46.50;;
3811;SDS011;1921;49.368;11.068;2022-10-16T05:34:42;51.73;;;46.40;;
3811;SDS011;1921;49.368;11.068;2022-10-16T05:37:08;52.73;;;47.23;;
3811;SDS011;1921;49.368;11.068;2022-10-16T05:39:36;52.03;;;46.67;;
3811;SDS011;1921;49.368;11.068;2022-10-16T05:42:02;51.77;;;46.40;;
3811;SDS011;1921;49.368;11.068;2022-10-16T05:44:28;52.37;;;46.67;;
3811;SDS011;1921;49.368;11.068;2022-10-16T05:46:54;51.70;;;46.40;;
3811;SDS011;1921;49.368;11.068;2022-10-16T05:49:20;52.10;;;46.70;;
3811;SDS011;1921;49.368;11.068;2022-10-16T05:51:45;51.80;;;46.50;;
3811;SDS011;1921;49.368;11.068;2022-10-16T05:54:11;52.23;;;46.60;;
3811;SDS011;1921;49.368;11.068;2022-10-16T05:56:37;52.20;;;46.83;;
3811;SDS011;1921;49.368;11.068;2022-10-16T05:59:03;52.03;;;46.60;;
3811;SDS011;1921;49.368;11.068;2022-10-16T06:01:29;52.63;;;47.07;;
3811;SDS011;1921;49.368;11.068;2022-10-16T06:03:56;51.47;;;46.17;;
3811;SDS011;1921;49.368;11.068;2022-10-16T06:06:23;66.57;;;47.23;;
3811;SDS011;1921;49.368;11.068;2022-10-16T06:08:52;52.47;;;47.00;;
3811;SDS011;1921;49.368;11.068;2022-10-16T06:11:20;52.40;;;46.80;;
3811;SDS011;1921;49.368;11.068;2022-10-16T06:13:54;52.67;;;46.67;;
3811;SDS011;1921;49.368;11.068;2022-10-16T06:16:22;52.37;;;46.70;;
3811;SDS011;1921;49.368;11.068;2022-10-16T06:18:53;52.23;;;46.53;;
3811;SDS011;1921;49.368;11.068;2022-10-16T06:21:21;52.40;;;46.90;;
3811;SDS011;1921;49.368;11.068;2022-10-16T06:23:50;52.33;;;46.93;;
3811;SDS011;1921;49.368;11.068;2022-10-16T06:26:17;52.27;;;46.80;;
3811;SDS011;1921;49.368;11.068;2022-10-16T06:28:46;52.53;;;46.93;;
3811;SDS011;1921;49.368;11.068;2022-10-16T06:31:12;52.40;;;46.90;;
3811;SDS011;1921;49.368;11.068;2022-10-16T06:33:39;52.70;;;47.10;;
3811;SDS011;1921;49.368;11.068;2022-10-16T06:38:36;52.70;;;47.20;;
3811;SDS011;1921;49.368;11.068;2022-10-16T06:41:03;52.77;;;47.17;;
3811;SDS011;1921;49.368;11.068;2022-10-16T06:43:30;54.90;;;47.53;;
3811;SDS011;1921;49.368;11.068;2022-10-16T06:46:03;53.87;;;48.07;;
3811;SDS011;1921;49.368;11.068;2022-10-16T06:48:32;54.60;;;47.40;;
3811;SDS011;1921;49.368;11.068;2022-10-16T06:51:02;55.50;;;47.73;;
3811;SDS011;1921;49.368;11.068;2022-10-16T06:53:34;53.33;;;47.63;;
3811;SDS011;1921;49.368;11.068;2022-10-16T06:56:12;53.20;;;47.50;;
3811;SDS011;1921;49.368;11.068;2022-10-16T06:58:41;53.30;;;47.60;;
3811;SDS011;1921;49.368;11.068;2022-10-16T07:01:08;53.20;;;47.40;;
3811;SDS011;1921;49.368;11.068;2022-10-16T07:03:37;53.10;;;47.30;;
3811;SDS011;1921;49.368;11.068;2022-10-16T07:06:07;53.40;;;47.70;;
3811;SDS011;1921;49.368;11.068;2022-10-16T07:08:36;57.20;;;47.80;;
3811;SDS011;1921;49.368;11.068;2022-10-16T07:11:05;53.40;;;47.50;;
3811;SDS011;1921;49.368;11.068;2022-10-16T07:13:37;58.57;;;47.83;;
3811;SDS011;1921;49.368;11.068;2022-10-16T07:16:15;52.93;;;47.30;;
3811;SDS011;1921;49.368;11.068;2022-10-16T07:18:44;53.40;;;47.67;;
3811;SDS011;1921;49.368;11.068;2022-10-16T07:21:21;55.77;;;47.97;;
3811;SDS011;1921;49.368;11.068;2022-10-16T07:23:51;53.57;;;47.70;;
3811;SDS011;1921;49.368;11.068;2022-10-16T07:26:17;53.07;;;47.43;;
3811;SDS011;1921;49.368;11.068;2022-10-16T07:28:43;52.80;;;47.20;;
3811;SDS011;1921;49.368;11.068;2022-10-16T07:31:11;52.90;;;47.20;;
3811;SDS011;1921;49.368;11.068;2022-10-16T07:33:39;52.93;;;47.23;;
3811;SDS011;1921;49.368;11.068;2022-10-16T07:36:10;53.23;;;47.50;;
3811;SDS011;1921;49.368;11.068;2022-10-16T07:38:37;52.70;;;47.10;;
3811;SDS011;1921;49.368;11.068;2022-10-16T07:41:04;53.80;;;48.10;;
3811;SDS011;1921;49.368;11.068;2022-10-16T07:43:32;53.63;;;47.83;;
3811;SDS011;1921;49.368;11.068;2022-10-16T07:45:58;54.53;;;48.07;;
3811;SDS011;1921;49.368;11.068;2022-10-16T07:48:26;54.30;;;48.40;;
3811;SDS011;1921;49.368;11.068;2022-10-16T07:50:58;53.13;;;47.53;;
3811;SDS011;1921;49.368;11.068;2022-10-16T07:53:29;53.90;;;48.10;;
3811;SDS011;1921;49.368;11.068;2022-10-16T07:55:56;53.07;;;47.47;;
3811;SDS011;1921;49.368;11.068;2022-10-16T07:58:27;53.30;;;47.60;;
3811;SDS011;1921;49.368;11.068;2022-10-16T08:00:53;52.83;;;47.23;;
3811;SDS011;1921;49.368;11.068;2022-10-16T08:03:20;55.80;;;48.20;;
3811;SDS011;1921;49.368;11.068;2022-10-16T08:05:46;54.27;;;48.20;;
3811;SDS011;1921;49.368;11.068;2022-10-16T08:08:12;53.63;;;47.90;;
3811;SDS011;1921;49.368;11.068;2022-10-16T08:10:39;54.13;;;48.30;;
3811;SDS011;1921;49.368;11.068;2022-10-16T08:13:05;55.20;;;48.07;;
3811;SDS011;1921;49.368;11.068;2022-10-16T08:15:31;53.93;;;47.90;;
3811;SDS011;1921;49.368;11.068;2022-10-16T08:18:01;55.00;;;48.50;;
3811;SDS011;1921;49.368;11.068;2022-10-16T08:20:29;54.00;;;48.20;;
3811;SDS011;1921;49.368;11.068;2022-10-16T08:22:58;54.17;;;48.17;;
3811;SDS011;1921;49.368;11.068;2022-10-16T08:25:25;54.23;;;48.33;;
3811;SDS011;1921;49.368;11.068;2022-10-16T08:27:51;54.40;;;48.40;;
3811;SDS011;1921;49.368;11.068;2022-10-16T08:30:18;53.80;;;48.00;;
3811;SDS011;1921;49.368;11.068;2022-10-16T08:32:46;54.10;;;48.20;;
3811;SDS011;1921;49.368;11.068;2022-10-16T08:35:12;54.80;;;48.70;;
3811;SDS011;1921;49.368;11.068;2022-10-16T08:37:39;56.43;;;48.97;;
3811;SDS011;1921;49.368;11.068;2022-10-16T08:40:06;54.67;;;48.67;;
3811;SDS011;1921;49.368;11.068;2022-10-16T08:51:27;56.60;;;49.27;;
3811;SDS011;1921;49.368;11.068;2022-10-16T08:54:11;58.70;;;49.17;;
3811;SDS011;1921;49.368;11.068;2022-10-16T08:57:13;55.60;;;49.00;;
3811;SDS011;1921;49.368;11.068;2022-10-16T08:59:45;55.80;;;49.60;;
3811;SDS011;1921;49.368;11.068;2022-10-16T09:16:28;58.70;;;49.70;;
3811;SDS011;1921;49.368;11.068;2022-10-16T09:21:49;55.57;;;49.30;;
3811;SDS011;1921;49.368;11.068;2022-10-16T09:24:20;57.13;;;49.90;;
3811;SDS011;1921;49.368;11.068;2022-10-16T09:26:50;55.83;;;49.13;;
3811;SDS011;1921;49.368;11.068;2022-10-16T09:29:16;57.00;;;49.40;;
3811;SDS011;1921;49.368;11.068;2022-10-16T09:31:49;56.50;;;49.37;;
3811;SDS011;1921;49.368;11.068;2022-10-16T09:37:05;59.60;;;50.13;;
3811;SDS011;1921;49.368;11.068;2022-10-16T09:39:47;55.70;;;48.93;;
3811;SDS011;1921;49.368;11.068;2022-10-16T09:44:52;55.40;;;49.00;;
3811;SDS011;1921;49.368;11.068;2022-10-16T09:47:23;54.80;;;48.80;;
3811;SDS011;1921;49.368;11.068;2022-10-16T09:50:00;56.40;;;49.10;;
3811;SDS011;1921;49.368;11.068;2022-10-16T09:52:41;54.80;;;48.80;;
3811;SDS011;1921;49.368;11.068;2022-10-16T09:55:14;56.13;;;48.70;;
3811;SDS011;1921;49.368;11.068;2022-10-16T09:57:52;55.00;;;49.00;;
3811;SDS011;1921;49.368;11.068;2022-10-16T10:00:19;56.43;;;48.73;;
3811;SDS011;1921;49.368;11.068;2022-10-16T10:02:47;58.13;;;49.57;;
3811;SDS011;1921;49.368;11.068;2022-10-16T10:05:17;56.43;;;48.93;;
3811;SDS011;1921;49.368;11.068;2022-10-16T10:07:52;58.27;;;49.80;;
3811;SDS011;1921;49.368;11.068;2022-10-16T10:10:31;58.80;;;50.00;;
3811;SDS011;1921;49.368;11.068;2022-10-16T10:13:18;59.10;;;49.80;;
3811;SDS011;1921;49.368;11.068;2022-10-16T10:15:45;58.23;;;49.90;;
3811;SDS011;1921;49.368;11.068;2022-10-16T10:18:16;58.67;;;50.20;;
3811;SDS011;1921;49.368;11.068;2022-10-16T10:20:56;62.10;;;50.87;;
3811;SDS011;1921;49.368;11.068;2022-10-16T10:23:27;58.20;;;50.00;;
3811;SDS011;1921;49.368;11.068;2022-10-16T10:26:09;59.00;;;50.50;;
3811;SDS011;1921;49.368;11.068;2022-10-16T10:28:57;58.50;;;49.97;;
3811;SDS011;1921;49.368;11.068;2022-10-16T10:31:43;58.30;;;50.00;;
3811;SDS011;1921;49.368;11.068;2022-10-16T10:40:45;57.90;;;49.90;;
3811;SDS011;1921;49.368;11.068;2022-10-16T11:01:16;60.00;;;50.90;;
3811;SDS011;1921;49.368;11.068;2022-10-16T11:06:58;58.30;;;49.97;;
3811;SDS011;1921;49.368;11.068;2022-10-16T11:09:41;59.20;;;50.13;;
3811;SDS011;1921;49.368;11.068;2022-10-16T11:15:18;58.87;;;50.37;;
3811;SDS011;1921;49.368;11.068;2022-10-16T11:18:07;58.80;;;50.27;;
3811;SDS011;1921;49.368;11.068;2022-10-16T11:20:54;58.70;;;50.50;;
3811;SDS011;1921;49.368;11.068;2022-10-16T11:26:14;59.40;;;50.30;;
3811;SDS011;1921;49.368;11.068;2022-10-16T11:28:47;57.80;;;49.67;;
3811;SDS011;1921;49.368;11.068;2022-10-16T11:39:58;61.93;;;50.63;;
3811;SDS011;1921;49.368;11.068;2022-10-16T11:42:46;63.40;;;51.23;;
3811;SDS011;1921;49.368;11.068;2022-10-16T11:45:32;60.13;;;50.63;;
3811;SDS011;1921;49.368;11.068;2022-10-16T11:51:16;61.63;;;51.23;;
3811;SDS011;1921;49.368;11.068;2022-10-16T11:54:02;66.20;;;52.10;;
3811;SDS011;1921;49.368;11.068;2022-10-16T11:57:12;61.03;;;51.40;;
3811;SDS011;1921;49.368;11.068;2022-10-16T12:07:51;62.50;;;51.57;;
3811;SDS011;1921;49.368;11.068;2022-10-16T12:10:40;63.87;;;52.10;;
3811;SDS011;1921;49.368;11.068;2022-10-16T12:16:05;61.17;;;51.20;;
3811;SDS011;1921;49.368;11.068;2022-10-16T12:18:38;62.50;;;51.30;;
3811;SDS011;1921;49.368;11.068;2022-10-16T12:21:06;67.77;;;52.03;;
3811;SDS011;1921;49.368;11.068;2022-10-16T12:23:36;61.87;;;51.77;;
3811;SDS011;1921;49.368;11.068;2022-10-16T12:26:04;63.80;;;51.50;;
3811;SDS011;1921;49.368;11.068;2022-10-16T12:28:31;65.37;;;51.77;;
3811;SDS011;1921;49.368;11.068;2022-10-16T12:31:02;61.93;;;51.53;;
3811;SDS011;1921;49.368;11.068;2022-10-16T12:33:39;61.90;;;51.23;;
3811;SDS011;1921;49.368;11.068;2022-10-16T12:38:56;61.03;;;51.50;;
3811;SDS011;1921;49.368;11.068;2022-10-16T12:41:29;62.17;;;51.70;;
3811;SDS011;1921;49.368;11.068;2022-10-16T12:44:02;61.83;;;51.80;;
3811;SDS011;1921;49.368;11.068;2022-10-16T12:49:06;60.80;;;51.30;;
3811;SDS011;1921;49.368;11.068;2022-10-16T12:51:37;62.13;;;51.40;;
3811;SDS011;1921;49.368;11.068;2022-10-16T13:06:47;64.87;;;51.97;;
3811;SDS011;1921;49.368;11.068;2022-10-16T13:12:18;63.75;;;52.00;;
3811;SDS011;1921;49.368;11.068;2022-10-16T13:18:41;63.13;;;51.75;;
3811;SDS011;1921;49.368;11.068;2022-10-16T13:21:14;61.92;;;51.60;;
3811;SDS011;1921;49.368;11.068;2022-10-16T13:24:17;64.13;;;51.70;;
3811;SDS011;1921;49.368;11.068;2022-10-16T13:30:19;65.03;;;52.13;;
3811;SDS011;1921;49.368;11.068;2022-10-16T13:32:50;61.50;;;51.67;;
3811;SDS011;1921;49.368;11.068;2022-10-16T13:35:31;61.10;;;51.40;;
3811;SDS011;1921;49.368;11.068;2022-10-16T13:40:36;61.03;;;51.60;;
3811;SDS011;1921;49.368;11.068;2022-10-16T13:43:12;60.00;;;50.93;;
3811;SDS011;1921;49.368;11.068;2022-10-16T13:45:38;61.13;;;51.03;;
3811;SDS011;1921;49.368;11.068;2022-10-16T13:48:05;59.70;;;50.70;;
3811;SDS011;1921;49.368;11.068;2022-10-16T13:50:37;73.47;;;50.97;;
3811;SDS011;1921;49.368;11.068;2022-10-16T13:53:06;61.57;;;51.37;;
3811;SDS011;1921;49.368;11.068;2022-10-16T13:55:39;60.60;;;51.33;;
3811;SDS011;1921;49.368;11.068;2022-10-16T13:58:10;60.90;;;51.00;;
3811;SDS011;1921;49.368;11.068;2022-10-16T14:00:39;63.70;;;51.70;;
3811;SDS011;1921;49.368;11.068;2022-10-16T14:03:17;61.10;;;51.50;;
3811;SDS011;1921;49.368;11.068;2022-10-16T14:05:49;62.45;;;51.58;;
3811;SDS011;1921;49.368;11.068;2022-10-16T14:08:20;67.28;;;52.33;;
3811;SDS011;1921;49.368;11.068;2022-10-16T14:10:49;61.80;;;51.80;;
3811;SDS011;1921;49.368;11.068;2022-10-16T14:13:51;64.20;;;51.72;;
3811;SDS011;1921;49.368;11.068;2022-10-16T14:16:15;62.00;;;51.78;;
3811;SDS011;1921;49.368;11.068;2022-10-16T14:19:06;62.22;;;52.08;;
3811;SDS011;1921;49.368;11.068;2022-10-16T14:21:31;64.18;;;52.10;;
3811;SDS011;1921;49.368;11.068;2022-10-16T14:23:59;61.83;;;51.75;;
3811;SDS011;1921;49.368;11.068;2022-10-16T14:26:40;65.28;;;51.78;;
3811;SDS011;1921;49.368;11.068;2022-10-16T14:29:11;62.55;;;52.03;;
3811;SDS011;1921;49.368;11.068;2022-10-16T14:31:53;62.85;;;52.13;;
3811;SDS011;1921;49.368;11.068;2022-10-16T14:34:36;62.22;;;52.33;;
3811;SDS011;1921;49.368;11.068;2022-10-16T14:39:51;63.70;;;52.85;;
3811;SDS011;1921;49.368;11.068;2022-10-16T14:42:18;62.95;;;52.17;;
3811;SDS011;1921;49.368;11.068;2022-10-16T14:44:48;62.65;;;52.08;;
3811;SDS011;1921;49.368;11.068;2022-10-16T14:47:18;63.57;;;52.17;;
3811;SDS011;1921;49.368;11.068;2022-10-16T14:49:49;62.67;;;51.83;;
3811;SDS011;1921;49.368;11.068;2022-10-16T14:52:16;61.90;;;51.77;;
3811;SDS011;1921;49.368;11.068;2022-10-16T14:54:42;64.17;;;51.70;;
3811;SDS011;1921;49.368;11.068;2022-10-16T14:57:18;63.63;;;52.10;;
3811;SDS011;1921;49.368;11.068;2022-10-16T14:59:49;62.70;;;51.87;;
3811;SDS011;1921;49.368;11.068;2022-10-16T15:02:34;61.70;;;51.97;;
3811;SDS011;1921;49.368;11.068;2022-10-16T15:05:10;61.27;;;51.63;;
3811;SDS011;1921;49.368;11.068;2022-10-16T15:07:39;62.60;;;51.53;;
3811;SDS011;1921;49.368;11.068;2022-10-16T15:10:05;64.37;;;51.17;;
3811;SDS011;1921;49.368;11.068;2022-10-16T15:12:31;60.80;;;51.50;;
3811;SDS011;1921;49.368;11.068;2022-10-16T15:14:57;60.17;;;51.03;;
3811;SDS011;1921;49.368;11.068;2022-10-16T15:17:23;60.40;;;50.90;;
3811;SDS011;1921;49.368;11.068;2022-10-16T15:19:48;59.57;;;50.83;;
3811;SDS011;1921;49.368;11.068;2022-10-16T15:22:16;59.50;;;50.87;;
3811;SDS011;1921;49.368;11.068;2022-10-16T15:24:42;59.37;;;50.83;;
3811;SDS011;1921;49.368;11.068;2022-10-16T15:27:08;58.73;;;50.60;;
3811;SDS011;1921;49.368;11.068;2022-10-16T15:29:34;58.60;;;50.23;;
3811;SDS011;1921;49.368;11.068;2022-10-16T15:31:59;58.27;;;50.00;;
3811;SDS011;1921;49.368;11.068;2022-10-16T15:34:25;58.90;;;50.10;;
3811;SDS011;1921;49.368;11.068;2022-10-16T15:36:51;58.17;;;50.17;;
3811;SDS011;1921;49.368;11.068;2022-10-16T15:39:18;58.00;;;50.13;;
3811;SDS011;1921;49.368;11.068;2022-10-16T15:41:45;56.30;;;49.60;;
3811;SDS011;1921;49.368;11.068;2022-10-16T15:44:19;58.40;;;49.83;;
3811;SDS011;1921;49.368;11.068;2022-10-16T15:46:47;63.30;;;50.27;;
3811;SDS011;1921;49.368;11.068;2022-10-16T15:49:13;56.20;;;49.40;;
3811;SDS011;1921;49.368;11.068;2022-10-16T15:51:39;57.33;;;49.90;;
3811;SDS011;1921;49.368;11.068;2022-10-16T15:54:06;57.67;;;49.60;;
3811;SDS011;1921;49.368;11.068;2022-10-16T15:56:33;57.00;;;49.60;;
3811;SDS011;1921;49.368;11.068;2022-10-16T15:59:01;56.43;;;49.70;;
3811;SDS011;1921;49.368;11.068;2022-10-16T16:01:28;64.23;;;49.83;;
3811;SDS011;1921;49.368;11.068;2022-10-16T16:03:57;56.73;;;49.60;;
3811;SDS011;1921;49.368;11.068;2022-10-16T16:06:23;57.77;;;49.37;;
3811;SDS011;1921;49.368;11.068;2022-10-16T16:08:49;56.37;;;49.60;;
3811;SDS011;1921;49.368;11.068;2022-10-16T16:11:16;56.07;;;49.70;;
3811;SDS011;1921;49.368;11.068;2022-10-16T16:13:44;56.63;;;49.60;;
3811;SDS011;1921;49.368;11.068;2022-10-16T16:16:13;55.43;;;49.33;;
3811;SDS011;1921;49.368;11.068;2022-10-16T16:18:41;67.83;;;49.90;;
3811;SDS011;1921;49.368;11.068;2022-10-16T16:21:09;57.50;;;49.47;;
3811;SDS011;1921;49.368;11.068;2022-10-16T16:23:37;55.90;;;49.57;;
3811;SDS011;1921;49.368;11.068;2022-10-16T16:28:36;58.40;;;49.63;;
3811;SDS011;1921;49.368;11.068;2022-10-16T16:31:03;57.93;;;50.70;;
3811;SDS011;1921;49.368;11.068;2022-10-16T16:33:29;60.47;;;50.60;;
3811;SDS011;1921;49.368;11.068;2022-10-16T16:36:00;58.23;;;50.20;;
3811;SDS011;1921;49.368;11.068;2022-10-16T16:38:29;57.53;;;49.67;;
3811;SDS011;1921;49.368;11.068;2022-10-16T16:40:56;55.40;;;49.30;;
3811;SDS011;1921;49.368;11.068;2022-10-16T16:43:22;56.40;;;49.60;;
3811;SDS011;1921;49.368;11.068;2022-10-16T16:45:52;55.60;;;49.17;;
3811;SDS011;1921;49.368;11.068;2022-10-16T16:48:19;56.93;;;49.37;;
3811;SDS011;1921;49.368;11.068;2022-10-16T16:50:46;55.50;;;49.30;;
3811;SDS011;1921;49.368;11.068;2022-10-16T16:53:11;56.67;;;49.63;;
3811;SDS011;1921;49.368;11.068;2022-10-16T16:55:37;57.90;;;49.20;;
3811;SDS011;1921;49.368;11.068;2022-10-16T16:58:03;55.47;;;49.00;;
3811;SDS011;1921;49.368;11.068;2022-10-16T17:00:29;57.33;;;49.23;;
3811;SDS011;1921;49.368;11.068;2022-10-16T17:02:55;56.80;;;49.60;;
3811;SDS011;1921;49.368;11.068;2022-10-16T17:05:22;55.70;;;49.00;;
3811;SDS011;1921;49.368;11.068;2022-10-16T17:07:47;55.70;;;49.60;;
3811;SDS011;1921;49.368;11.068;2022-10-16T17:10:13;55.20;;;49.20;;
3811;SDS011;1921;49.368;11.068;2022-10-16T17:12:39;56.63;;;49.67;;
3811;SDS011;1921;49.368;11.068;2022-10-16T17:15:05;57.97;;;50.10;;
3811;SDS011;1921;49.368;11.068;2022-10-16T17:17:32;55.90;;;49.73;;
3811;SDS011;1921;49.368;11.068;2022-10-16T17:19:58;55.77;;;49.67;;
3811;SDS011;1921;49.368;11.068;2022-10-16T17:22:23;55.97;;;49.60;;